sensor_id;sensor_type;location;lat;lon;timestamp;pressure;altitude;pressure_sealevel;temperature;humidity
19736;BME280;32064;49.310;8.646;2023-03-15T00:01:10;100277.81;;;7.79;73.90
19736;BME280;32064;49.310;8.646;2023-03-15T00:03:39;100283.91;;;7.80;73.42
19736;BME280;32064;49.310;8.646;2023-03-15T00:06:05;100278.59;;;7.81;72.90
19736;BME280;32064;49.310;8.646;2023-03-15T00:08:31;100288.00;;;7.84;73.24
19736;BME280;32064;49.310;8.646;2023-03-15T00:10:59;100291.31;;;7.87;73.00
19736;BME280;32064;49.310;8.646;2023-03-15T00:13:25;100295.41;;;7.92;73.32
19736;BME280;32064;49.310;8.646;2023-03-15T00:15:53;100302.81;;;7.85;72.57
19736;BME280;32064;49.310;8.646;2023-03-15T00:18:20;100302.16;;;7.81;73.21
19736;BME280;32064;49.310;8.646;2023-03-15T00:20:45;100310.09;;;7.80;73.04
19736;BME280;32064;49.310;8.646;2023-03-15T00:23:12;100313.47;;;7.82;72.65
19736;BME280;32064;49.310;8.646;2023-03-15T00:25:38;100317.94;;;7.80;72.55
19736;BME280;32064;49.310;8.646;2023-03-15T00:28:04;100314.00;;;7.73;72.23
19736;BME280;32064;49.310;8.646;2023-03-15T00:30:29;100319.78;;;7.63;72.25
19736;BME280;32064;49.310;8.646;2023-03-15T00:32:55;100332.22;;;7.60;71.79
19736;BME280;32064;49.310;8.646;2023-03-15T00:35:21;100334.63;;;7.49;72.07
19736;BME280;32064;49.310;8.646;2023-03-15T00:37:48;100330.34;;;7.48;73.09
19736;BME280;32064;49.310;8.646;2023-03-15T00:40:14;100337.31;;;7.47;72.46
19736;BME280;32064;49.310;8.646;2023-03-15T00:42:39;100334.81;;;7.46;72.10
19736;BME280;32064;49.310;8.646;2023-03-15T00:45:05;100335.81;;;7.43;72.66
19736;BME280;32064;49.310;8.646;2023-03-15T00:47:31;100340.41;;;7.39;72.97
19736;BME280;32064;49.310;8.646;2023-03-15T00:49:56;100349.69;;;7.29;72.95
19736;BME280;32064;49.310;8.646;2023-03-15T00:52:22;100340.25;;;7.27;72.75
19736;BME280;32064;49.310;8.646;2023-03-15T00:54:54;100354.53;;;7.21;72.85
19736;BME280;32064;49.310;8.646;2023-03-15T00:57:20;100348.56;;;7.19;72.03
19736;BME280;32064;49.310;8.646;2023-03-15T00:59:46;100354.69;;;7.18;72.52
19736;BME280;32064;49.310;8.646;2023-03-15T01:02:12;100357.97;;;7.22;73.11
19736;BME280;32064;49.310;8.646;2023-03-15T01:04:37;100360.34;;;7.26;72.51
19736;BME280;32064;49.310;8.646;2023-03-15T01:07:03;100367.44;;;7.24;71.29
19736;BME280;32064;49.310;8.646;2023-03-15T01:09:29;100373.19;;;7.15;71.30
19736;BME280;32064;49.310;8.646;2023-03-15T01:11:59;100369.81;;;7.13;71.86
19736;BME280;32064;49.310;8.646;2023-03-15T01:14:24;100368.31;;;7.09;72.25
19736;BME280;32064;49.310;8.646;2023-03-15T01:16:50;100371.16;;;7.04;72.86
19736;BME280;32064;49.310;8.646;2023-03-15T01:19:15;100363.66;;;6.98;72.22
19736;BME280;32064;49.310;8.646;2023-03-15T01:21:41;100363.84;;;6.95;72.91
19736;BME280;32064;49.310;8.646;2023-03-15T01:24:11;100364.09;;;6.90;72.52
19736;BME280;32064;49.310;8.646;2023-03-15T01:26:37;100365.03;;;6.89;72.38
19736;BME280;32064;49.310;8.646;2023-03-15T01:29:02;100367.72;;;6.88;71.60
19736;BME280;32064;49.310;8.646;2023-03-15T01:31:29;100369.66;;;6.84;72.30
19736;BME280;32064;49.310;8.646;2023-03-15T01:33:55;100377.84;;;6.78;71.96
19736;BME280;32064;49.310;8.646;2023-03-15T01:36:21;100378.09;;;6.73;71.52
19736;BME280;32064;49.310;8.646;2023-03-15T01:38:47;100383.41;;;6.72;72.78
19736;BME280;32064;49.310;8.646;2023-03-15T01:41:14;100385.09;;;6.73;71.86
19736;BME280;32064;49.310;8.646;2023-03-15T01:43:40;100380.03;;;6.70;71.65
19736;BME280;32064;49.310;8.646;2023-03-15T01:51:24;100384.09;;;6.60;72.20
19736;BME280;32064;49.310;8.646;2023-03-15T01:54:06;100385.94;;;6.58;71.03
19736;BME280;32064;49.310;8.646;2023-03-15T01:56:34;100376.56;;;6.53;71.05
19736;BME280;32064;49.310;8.646;2023-03-15T01:59:02;100376.06;;;6.47;71.08
19736;BME280;32064;49.310;8.646;2023-03-15T02:01:31;100387.44;;;6.46;71.41
19736;BME280;32064;49.310;8.646;2023-03-15T02:04:03;100382.38;;;6.43;71.81
19736;BME280;32064;49.310;8.646;2023-03-15T02:06:31;100395.16;;;6.32;70.82
19736;BME280;32064;49.310;8.646;2023-03-15T02:09:02;100393.44;;;6.15;71.81
19736;BME280;32064;49.310;8.646;2023-03-15T02:11:29;100397.59;;;6.01;71.15
19736;BME280;32064;49.310;8.646;2023-03-15T02:13:55;100393.47;;;5.97;72.28
19736;BME280;32064;49.310;8.646;2023-03-15T02:16:22;100406.09;;;6.05;72.51
19736;BME280;32064;49.310;8.646;2023-03-15T02:18:49;100403.44;;;6.06;71.16
19736;BME280;32064;49.310;8.646;2023-03-15T02:21:48;100403.81;;;5.99;70.21
19736;BME280;32064;49.310;8.646;2023-03-15T02:24:31;100412.00;;;5.91;71.41
19736;BME280;32064;49.310;8.646;2023-03-15T02:26:58;100417.53;;;5.85;72.18
19736;BME280;32064;49.310;8.646;2023-03-15T02:29:25;100422.38;;;5.75;71.51
19736;BME280;32064;49.310;8.646;2023-03-15T02:31:52;100431.09;;;5.74;71.13
19736;BME280;32064;49.310;8.646;2023-03-15T02:34:18;100437.88;;;5.78;71.88
19736;BME280;32064;49.310;8.646;2023-03-15T02:36:43;100444.09;;;5.76;71.85
19736;BME280;32064;49.310;8.646;2023-03-15T02:39:17;100441.69;;;5.71;71.53
19736;BME280;32064;49.310;8.646;2023-03-15T02:41:47;100447.06;;;5.68;72.85
19736;BME280;32064;49.310;8.646;2023-03-15T02:44:24;100443.09;;;5.61;71.10
19736;BME280;32064;49.310;8.646;2023-03-15T02:46:52;100458.97;;;5.56;71.00
19736;BME280;32064;49.310;8.646;2023-03-15T02:49:22;100452.22;;;5.52;72.61
19736;BME280;32064;49.310;8.646;2023-03-15T02:51:49;100460.19;;;5.49;72.41
19736;BME280;32064;49.310;8.646;2023-03-15T02:54:14;100466.41;;;5.47;71.82
19736;BME280;32064;49.310;8.646;2023-03-15T02:56:40;100469.00;;;5.47;72.60
19736;BME280;32064;49.310;8.646;2023-03-15T02:59:06;100474.22;;;5.47;72.62
19736;BME280;32064;49.310;8.646;2023-03-15T03:01:31;100472.44;;;5.47;72.52
19736;BME280;32064;49.310;8.646;2023-03-15T03:03:57;100474.13;;;5.48;71.41
19736;BME280;32064;49.310;8.646;2023-03-15T03:06:22;100477.72;;;5.46;73.54
19736;BME280;32064;49.310;8.646;2023-03-15T03:08:48;100478.34;;;5.51;71.73
19736;BME280;32064;49.310;8.646;2023-03-15T03:11:14;100480.91;;;5.52;71.08
19736;BME280;32064;49.310;8.646;2023-03-15T03:13:40;100477.38;;;5.53;72.93
19736;BME280;32064;49.310;8.646;2023-03-15T03:16:06;100483.66;;;5.49;71.50
19736;BME280;32064;49.310;8.646;2023-03-15T03:18:31;100487.03;;;5.51;71.54
19736;BME280;32064;49.310;8.646;2023-03-15T03:21:01;100494.94;;;5.50;73.00
19736;BME280;32064;49.310;8.646;2023-03-15T03:23:28;100498.44;;;5.49;72.32
19736;BME280;32064;49.310;8.646;2023-03-15T03:25:55;100503.75;;;5.47;73.02
19736;BME280;32064;49.310;8.646;2023-03-15T03:28:22;100506.50;;;5.44;73.29
19736;BME280;32064;49.310;8.646;2023-03-15T03:30:49;100499.53;;;5.45;72.71
19736;BME280;32064;49.310;8.646;2023-03-15T03:33:14;100508.34;;;5.42;72.54
19736;BME280;32064;49.310;8.646;2023-03-15T03:35:40;100511.78;;;5.43;73.30
19736;BME280;32064;49.310;8.646;2023-03-15T03:38:06;100507.56;;;5.40;71.35
19736;BME280;32064;49.310;8.646;2023-03-15T03:40:32;100517.84;;;5.43;72.17
19736;BME280;32064;49.310;8.646;2023-03-15T03:42:57;100514.41;;;5.43;71.76
19736;BME280;32064;49.310;8.646;2023-03-15T03:45:23;100517.31;;;5.36;72.65
19736;BME280;32064;49.310;8.646;2023-03-15T03:47:48;100525.28;;;5.33;73.25
19736;BME280;32064;49.310;8.646;2023-03-15T03:50:16;100529.00;;;5.28;72.39
19736;BME280;32064;49.310;8.646;2023-03-15T03:52:41;100526.25;;;5.31;72.40
19736;BME280;32064;49.310;8.646;2023-03-15T03:55:09;100532.25;;;5.33;73.20
19736;BME280;32064;49.310;8.646;2023-03-15T03:57:38;100533.38;;;5.27;71.92
19736;BME280;32064;49.310;8.646;2023-03-15T04:00:04;100533.44;;;5.26;72.02
19736;BME280;32064;49.310;8.646;2023-03-15T04:02:30;100535.00;;;5.30;73.15
19736;BME280;32064;49.310;8.646;2023-03-15T04:04:55;100542.88;;;5.28;73.01
19736;BME280;32064;49.310;8.646;2023-03-15T04:07:20;100543.72;;;5.29;72.34
19736;BME280;32064;49.310;8.646;2023-03-15T04:09:46;100543.03;;;5.25;72.17
19736;BME280;32064;49.310;8.646;2023-03-15T04:12:11;100553.47;;;5.25;72.25
19736;BME280;32064;49.310;8.646;2023-03-15T04:14:37;100555.38;;;5.22;71.99
19736;BME280;32064;49.310;8.646;2023-03-15T04:17:02;100554.66;;;5.18;71.89
19736;BME280;32064;49.310;8.646;2023-03-15T04:19:28;100563.47;;;5.15;72.46
19736;BME280;32064;49.310;8.646;2023-03-15T04:21:54;100564.38;;;5.14;72.15
19736;BME280;32064;49.310;8.646;2023-03-15T04:24:19;100554.03;;;5.13;72.31
19736;BME280;32064;49.310;8.646;2023-03-15T04:26:44;100561.06;;;5.11;72.97
19736;BME280;32064;49.310;8.646;2023-03-15T04:29:10;100557.63;;;5.10;73.21
19736;BME280;32064;49.310;8.646;2023-03-15T04:31:36;100553.25;;;5.11;72.80
19736;BME280;32064;49.310;8.646;2023-03-15T04:34:03;100546.50;;;5.07;73.45
19736;BME280;32064;49.310;8.646;2023-03-15T04:36:29;100553.38;;;5.08;74.34
19736;BME280;32064;49.310;8.646;2023-03-15T04:38:55;100550.91;;;5.05;72.95
19736;BME280;32064;49.310;8.646;2023-03-15T04:41:32;100551.47;;;5.11;72.45
19736;BME280;32064;49.310;8.646;2023-03-15T04:43:59;100550.63;;;5.11;72.95
19736;BME280;32064;49.310;8.646;2023-03-15T04:46:25;100557.66;;;5.09;72.79
19736;BME280;32064;49.310;8.646;2023-03-15T04:48:50;100564.59;;;5.10;72.34
19736;BME280;32064;49.310;8.646;2023-03-15T04:51:16;100568.94;;;5.09;72.16
19736;BME280;32064;49.310;8.646;2023-03-15T04:53:41;100570.66;;;5.10;72.47
19736;BME280;32064;49.310;8.646;2023-03-15T04:56:06;100570.84;;;5.06;73.97
19736;BME280;32064;49.310;8.646;2023-03-15T04:58:32;100573.59;;;5.03;73.87
19736;BME280;32064;49.310;8.646;2023-03-15T05:00:57;100585.28;;;4.94;73.70
19736;BME280;32064;49.310;8.646;2023-03-15T05:03:23;100584.47;;;4.92;73.54
19736;BME280;32064;49.310;8.646;2023-03-15T05:05:48;100583.63;;;4.91;72.74
19736;BME280;32064;49.310;8.646;2023-03-15T05:08:14;100582.81;;;4.91;73.30
19736;BME280;32064;49.310;8.646;2023-03-15T05:10:39;100580.97;;;4.93;74.21
19736;BME280;32064;49.310;8.646;2023-03-15T05:13:05;100585.47;;;4.89;73.48
19736;BME280;32064;49.310;8.646;2023-03-15T05:15:30;100580.34;;;4.88;74.11
19736;BME280;32064;49.310;8.646;2023-03-15T05:17:56;100585.53;;;4.88;74.55
19736;BME280;32064;49.310;8.646;2023-03-15T05:20:21;100578.06;;;4.80;74.78
19736;BME280;32064;49.310;8.646;2023-03-15T05:22:47;100587.44;;;4.84;73.46
19736;BME280;32064;49.310;8.646;2023-03-15T05:25:13;100590.63;;;4.91;73.81
19736;BME280;32064;49.310;8.646;2023-03-15T05:27:39;100588.81;;;4.93;74.00
19736;BME280;32064;49.310;8.646;2023-03-15T05:30:06;100601.44;;;5.02;73.11
19736;BME280;32064;49.310;8.646;2023-03-15T05:32:32;100595.94;;;5.08;74.53
19736;BME280;32064;49.310;8.646;2023-03-15T05:35:05;100591.38;;;5.13;74.01
19736;BME280;32064;49.310;8.646;2023-03-15T05:37:31;100592.22;;;5.14;73.29
19736;BME280;32064;49.310;8.646;2023-03-15T05:39:57;100596.59;;;5.13;74.66
19736;BME280;32064;49.310;8.646;2023-03-15T05:42:23;100599.06;;;5.16;74.82
19736;BME280;32064;49.310;8.646;2023-03-15T05:44:55;100596.16;;;5.23;74.47
19736;BME280;32064;49.310;8.646;2023-03-15T05:47:21;100595.19;;;5.25;74.68
19736;BME280;32064;49.310;8.646;2023-03-15T05:49:47;100609.00;;;5.27;74.25
19736;BME280;32064;49.310;8.646;2023-03-15T05:52:14;100613.16;;;5.31;74.42
19736;BME280;32064;49.310;8.646;2023-03-15T05:54:39;100613.81;;;5.36;73.25
19736;BME280;32064;49.310;8.646;2023-03-15T05:57:05;100608.53;;;5.38;74.43
19736;BME280;32064;49.310;8.646;2023-03-15T05:59:30;100610.03;;;5.44;72.90
19736;BME280;32064;49.310;8.646;2023-03-15T06:01:56;100617.75;;;5.45;72.83
19736;BME280;32064;49.310;8.646;2023-03-15T06:04:21;100620.19;;;5.50;73.15
19736;BME280;32064;49.310;8.646;2023-03-15T06:06:50;100617.47;;;5.51;73.13
19736;BME280;32064;49.310;8.646;2023-03-15T06:09:16;100618.97;;;5.57;73.63
19736;BME280;32064;49.310;8.646;2023-03-15T06:11:41;100627.44;;;5.62;74.00
19736;BME280;32064;49.310;8.646;2023-03-15T06:14:07;100634.00;;;5.71;73.48
19736;BME280;32064;49.310;8.646;2023-03-15T06:16:32;100637.16;;;5.77;74.29
19736;BME280;32064;49.310;8.646;2023-03-15T06:18:58;100648.19;;;5.84;73.13
19736;BME280;32064;49.310;8.646;2023-03-15T06:21:23;100649.06;;;5.83;73.62
19736;BME280;32064;49.310;8.646;2023-03-15T06:23:48;100650.00;;;5.82;74.35
19736;BME280;32064;49.310;8.646;2023-03-15T06:26:14;100642.25;;;5.80;73.97
19736;BME280;32064;49.310;8.646;2023-03-15T06:28:40;100646.00;;;5.94;73.04
19736;BME280;32064;49.310;8.646;2023-03-15T06:31:10;100647.03;;;5.90;73.94
19736;BME280;32064;49.310;8.646;2023-03-15T06:33:36;100645.22;;;5.92;72.34
19736;BME280;32064;49.310;8.646;2023-03-15T06:36:01;100649.38;;;5.96;72.70
19736;BME280;32064;49.310;8.646;2023-03-15T06:38:27;100645.84;;;5.97;73.03
19736;BME280;32064;49.310;8.646;2023-03-15T06:40:52;100658.06;;;5.96;73.90
19736;BME280;32064;49.310;8.646;2023-03-15T06:43:19;100647.19;;;6.05;74.16
19736;BME280;32064;49.310;8.646;2023-03-15T06:45:45;100648.38;;;6.17;73.13
19736;BME280;32064;49.310;8.646;2023-03-15T06:48:12;100651.38;;;6.27;73.00
19736;BME280;32064;49.310;8.646;2023-03-15T06:50:37;100655.16;;;6.39;72.94
19736;BME280;32064;49.310;8.646;2023-03-15T06:53:03;100646.97;;;6.46;71.96
19736;BME280;32064;49.310;8.646;2023-03-15T06:55:28;100650.75;;;6.58;72.90
19736;BME280;32064;49.310;8.646;2023-03-15T06:57:54;100648.75;;;6.63;73.25
19736;BME280;32064;49.310;8.646;2023-03-15T07:00:19;100654.81;;;6.64;72.85
19736;BME280;32064;49.310;8.646;2023-03-15T07:02:45;100663.75;;;6.60;71.86
19736;BME280;32064;49.310;8.646;2023-03-15T07:05:10;100664.34;;;6.65;72.58
19736;BME280;32064;49.310;8.646;2023-03-15T07:07:37;100664.66;;;6.59;72.21
19736;BME280;32064;49.310;8.646;2023-03-15T07:10:03;100656.81;;;6.59;72.60
19736;BME280;32064;49.310;8.646;2023-03-15T07:12:29;100663.13;;;6.55;73.11
19736;BME280;32064;49.310;8.646;2023-03-15T07:14:54;100662.03;;;6.59;73.07
19736;BME280;32064;49.310;8.646;2023-03-15T07:17:20;100675.66;;;6.65;73.13
19736;BME280;32064;49.310;8.646;2023-03-15T07:19:45;100676.72;;;6.61;72.27
19736;BME280;32064;49.310;8.646;2023-03-15T07:22:10;100684.66;;;6.60;72.51
19736;BME280;32064;49.310;8.646;2023-03-15T07:24:36;100684.78;;;6.57;72.47
19736;BME280;32064;49.310;8.646;2023-03-15T07:27:01;100678.81;;;6.55;72.76
19736;BME280;32064;49.310;8.646;2023-03-15T07:29:27;100686.50;;;6.58;72.94
19736;BME280;32064;49.310;8.646;2023-03-15T07:31:52;100689.88;;;6.60;73.24
19736;BME280;32064;49.310;8.646;2023-03-15T07:34:18;100691.56;;;6.61;73.41
19736;BME280;32064;49.310;8.646;2023-03-15T07:36:43;100696.44;;;6.68;72.16
19736;BME280;32064;49.310;8.646;2023-03-15T07:39:08;100696.69;;;6.62;72.53
19736;BME280;32064;49.310;8.646;2023-03-15T07:41:35;100707.31;;;6.59;72.16
19736;BME280;32064;49.310;8.646;2023-03-15T07:44:01;100714.16;;;6.62;72.62
19736;BME280;32064;49.310;8.646;2023-03-15T07:46:26;100715.09;;;6.61;72.55
19736;BME280;32064;49.310;8.646;2023-03-15T07:48:51;100706.31;;;6.62;72.62
19736;BME280;32064;49.310;8.646;2023-03-15T07:51:17;100711.34;;;6.66;71.82
19736;BME280;32064;49.310;8.646;2023-03-15T07:53:42;100709.19;;;6.74;72.79
19736;BME280;32064;49.310;8.646;2023-03-15T07:56:08;100697.59;;;6.80;72.85
19736;BME280;32064;49.310;8.646;2023-03-15T07:58:33;100708.50;;;6.88;72.81
19736;BME280;32064;49.310;8.646;2023-03-15T08:00:59;100712.59;;;6.94;72.74
19736;BME280;32064;49.310;8.646;2023-03-15T08:03:24;100716.81;;;6.96;72.26
19736;BME280;32064;49.310;8.646;2023-03-15T08:05:53;100724.66;;;6.96;72.37
19736;BME280;32064;49.310;8.646;2023-03-15T08:08:19;100722.06;;;6.96;72.42
19736;BME280;32064;49.310;8.646;2023-03-15T08:10:44;100721.13;;;6.97;72.68
19736;BME280;32064;49.310;8.646;2023-03-15T08:13:11;100726.66;;;7.09;72.83
19736;BME280;32064;49.310;8.646;2023-03-15T08:15:36;100722.06;;;7.14;72.25
19736;BME280;32064;49.310;8.646;2023-03-15T08:18:02;100721.56;;;7.23;71.45
19736;BME280;32064;49.310;8.646;2023-03-15T08:20:28;100726.34;;;7.32;72.35
19736;BME280;32064;49.310;8.646;2023-03-15T08:22:53;100732.19;;;7.37;70.91
19736;BME280;32064;49.310;8.646;2023-03-15T08:25:22;100738.81;;;7.45;72.47
19736;BME280;32064;49.310;8.646;2023-03-15T08:27:48;100738.03;;;7.42;71.11
19736;BME280;32064;49.310;8.646;2023-03-15T08:30:16;100736.31;;;7.41;70.69
19736;BME280;32064;49.310;8.646;2023-03-15T08:32:43;100731.53;;;7.50;70.97
19736;BME280;32064;49.310;8.646;2023-03-15T08:35:10;100742.56;;;7.56;70.30
19736;BME280;32064;49.310;8.646;2023-03-15T08:37:39;100742.22;;;7.62;70.97
19736;BME280;32064;49.310;8.646;2023-03-15T08:40:06;100739.69;;;7.61;71.01
19736;BME280;32064;49.310;8.646;2023-03-15T08:42:36;100739.69;;;7.61;70.37
19736;BME280;32064;49.310;8.646;2023-03-15T08:45:03;100741.22;;;7.65;70.88
19736;BME280;32064;49.310;8.646;2023-03-15T08:47:34;100745.25;;;7.55;70.09
19736;BME280;32064;49.310;8.646;2023-03-15T08:50:01;100740.69;;;7.58;70.77
19736;BME280;32064;49.310;8.646;2023-03-15T08:52:29;100746.78;;;7.59;70.43
19736;BME280;32064;49.310;8.646;2023-03-15T08:54:55;100755.38;;;7.61;70.58
19736;BME280;32064;49.310;8.646;2023-03-15T08:57:20;100750.94;;;7.63;69.84
19736;BME280;32064;49.310;8.646;2023-03-15T08:59:50;100756.31;;;7.60;70.29
19736;BME280;32064;49.310;8.646;2023-03-15T09:02:16;100752.09;;;7.57;69.65
19736;BME280;32064;49.310;8.646;2023-03-15T09:04:41;100742.41;;;7.59;70.56
19736;BME280;32064;49.310;8.646;2023-03-15T09:07:07;100751.16;;;7.58;69.90
19736;BME280;32064;49.310;8.646;2023-03-15T09:09:32;100755.94;;;7.68;69.93
19736;BME280;32064;49.310;8.646;2023-03-15T09:11:58;100763.41;;;7.58;70.32
19736;BME280;32064;49.310;8.646;2023-03-15T09:14:23;100761.16;;;7.68;69.77
19736;BME280;32064;49.310;8.646;2023-03-15T09:16:49;100762.63;;;7.73;69.67
19736;BME280;32064;49.310;8.646;2023-03-15T09:19:14;100764.13;;;7.77;70.02
19736;BME280;32064;49.310;8.646;2023-03-15T09:21:39;100768.31;;;7.81;70.22
19736;BME280;32064;49.310;8.646;2023-03-15T09:24:05;100770.31;;;7.76;69.82
19736;BME280;32064;49.310;8.646;2023-03-15T09:26:31;100761.69;;;7.74;69.72
19736;BME280;32064;49.310;8.646;2023-03-15T09:28:56;100767.00;;;7.73;69.42
19736;BME280;32064;49.310;8.646;2023-03-15T09:31:21;100776.22;;;7.80;69.59
19736;BME280;32064;49.310;8.646;2023-03-15T09:33:49;100780.38;;;7.84;69.50
19736;BME280;32064;49.310;8.646;2023-03-15T09:36:14;100775.06;;;7.85;69.10
19736;BME280;32064;49.310;8.646;2023-03-15T09:38:42;100761.97;;;7.85;69.62
19736;BME280;32064;49.310;8.646;2023-03-15T09:41:18;100777.28;;;7.93;69.26
19736;BME280;32064;49.310;8.646;2023-03-15T09:44:06;100786.00;;;8.09;69.12
19736;BME280;32064;49.310;8.646;2023-03-15T09:47:00;100790.75;;;8.19;69.31
19736;BME280;32064;49.310;8.646;2023-03-15T09:49:38;100784.41;;;8.23;69.12
19736;BME280;32064;49.310;8.646;2023-03-15T09:52:26;100781.03;;;8.21;69.35
19736;BME280;32064;49.310;8.646;2023-03-15T09:55:09;100777.84;;;8.16;69.47
19736;BME280;32064;49.310;8.646;2023-03-15T09:57:42;100778.84;;;8.13;68.87
19736;BME280;32064;49.310;8.646;2023-03-15T10:00:19;100785.16;;;8.09;69.73
19736;BME280;32064;49.310;8.646;2023-03-15T10:02:58;100788.53;;;8.11;69.30
19736;BME280;32064;49.310;8.646;2023-03-15T10:07:59;100803.06;;;8.01;69.16
19736;BME280;32064;49.310;8.646;2023-03-15T10:10:33;100812.34;;;7.91;69.34
19736;BME280;32064;49.310;8.646;2023-03-15T10:15:52;100794.03;;;7.73;69.02
19736;BME280;32064;49.310;8.646;2023-03-15T10:19:12;100807.44;;;7.67;70.03
19736;BME280;32064;49.310;8.646;2023-03-15T10:21:41;100806.06;;;7.60;71.05
19736;BME280;32064;49.310;8.646;2023-03-15T10:24:27;100805.44;;;7.55;71.53
19736;BME280;32064;49.310;8.646;2023-03-15T10:26:58;100810.38;;;7.61;71.10
19736;BME280;32064;49.310;8.646;2023-03-15T10:29:30;100805.38;;;7.74;71.00
19736;BME280;32064;49.310;8.646;2023-03-15T10:31:56;100804.22;;;7.95;70.90
19736;BME280;32064;49.310;8.646;2023-03-15T10:34:22;100810.78;;;8.04;70.92
19736;BME280;32064;49.310;8.646;2023-03-15T10:36:56;100802.00;;;8.21;71.14
19736;BME280;32064;49.310;8.646;2023-03-15T10:39:23;100815.53;;;8.29;70.80
19736;BME280;32064;49.310;8.646;2023-03-15T10:41:49;100818.56;;;8.39;70.31
19736;BME280;32064;49.310;8.646;2023-03-15T10:44:26;100813.34;;;8.37;70.58
19736;BME280;32064;49.310;8.646;2023-03-15T10:49:34;100817.19;;;8.47;70.49
19736;BME280;32064;49.310;8.646;2023-03-15T10:52:00;100805.88;;;8.47;70.87
19736;BME280;32064;49.310;8.646;2023-03-15T10:54:26;100810.09;;;8.49;70.61
19736;BME280;32064;49.310;8.646;2023-03-15T10:57:14;100803.75;;;8.53;71.02
19736;BME280;32064;49.310;8.646;2023-03-15T10:59:58;100802.06;;;8.68;70.51
19736;BME280;32064;49.310;8.646;2023-03-15T11:02:29;100806.88;;;8.76;70.99
19736;BME280;32064;49.310;8.646;2023-03-15T11:05:03;100804.19;;;8.77;70.48
19736;BME280;32064;49.310;8.646;2023-03-15T11:07:28;100804.84;;;8.81;70.38
19736;BME280;32064;49.310;8.646;2023-03-15T11:10:00;100800.94;;;8.88;70.14
19736;BME280;32064;49.310;8.646;2023-03-15T11:12:28;100795.84;;;9.01;70.42
19736;BME280;32064;49.310;8.646;2023-03-15T11:15:10;100796.16;;;9.11;69.43
19736;BME280;32064;49.310;8.646;2023-03-15T11:17:47;100806.72;;;9.39;70.32
19736;BME280;32064;49.310;8.646;2023-03-15T11:20:26;100802.38;;;9.54;69.68
19736;BME280;32064;49.310;8.646;2023-03-15T11:22:55;100796.84;;;9.59;69.71
19736;BME280;32064;49.310;8.646;2023-03-15T11:25:27;100792.16;;;9.64;70.05
19736;BME280;32064;49.310;8.646;2023-03-15T11:27:58;100789.34;;;9.67;69.04
19736;BME280;32064;49.310;8.646;2023-03-15T11:30:27;100797.63;;;9.75;69.67
19736;BME280;32064;49.310;8.646;2023-03-15T11:32:54;100797.53;;;9.91;69.49
19736;BME280;32064;49.310;8.646;2023-03-15T11:35:30;100796.59;;;9.92;68.73
19736;BME280;32064;49.310;8.646;2023-03-15T11:38:01;100795.00;;;10.04;69.75
19736;BME280;32064;49.310;8.646;2023-03-15T11:40:33;100789.75;;;10.04;68.77
19736;BME280;32064;49.310;8.646;2023-03-15T11:43:23;100794.53;;;9.97;68.19
19736;BME280;32064;49.310;8.646;2023-03-15T11:48:28;100797.06;;;9.84;67.92
19736;BME280;32064;49.310;8.646;2023-03-15T11:50:57;100800.81;;;9.80;69.22
19736;BME280;32064;49.310;8.646;2023-03-15T11:53:29;100798.06;;;9.67;68.11
19736;BME280;32064;49.310;8.646;2023-03-15T11:56:18;100795.72;;;9.49;69.04
19736;BME280;32064;49.310;8.646;2023-03-15T11:58:43;100800.66;;;9.39;69.30
19736;BME280;32064;49.310;8.646;2023-03-15T12:01:10;100805.22;;;9.35;68.79
19736;BME280;32064;49.310;8.646;2023-03-15T12:03:48;100804.22;;;9.38;69.15
19736;BME280;32064;49.310;8.646;2023-03-15T12:08:52;100808.63;;;9.37;69.83
19736;BME280;32064;49.310;8.646;2023-03-15T12:14:03;100806.13;;;9.20;69.81
19736;BME280;32064;49.310;8.646;2023-03-15T12:16:41;100805.19;;;9.21;70.11
19736;BME280;32064;49.310;8.646;2023-03-15T12:19:15;100805.78;;;9.26;70.84
19736;BME280;32064;49.310;8.646;2023-03-15T12:21:49;100810.91;;;9.28;69.79
19736;BME280;32064;49.310;8.646;2023-03-15T12:24:25;100812.22;;;9.20;71.05
19736;BME280;32064;49.310;8.646;2023-03-15T12:27:17;100811.47;;;9.18;71.15
19736;BME280;32064;49.310;8.646;2023-03-15T12:29:45;100807.72;;;9.22;70.77
19736;BME280;32064;49.310;8.646;2023-03-15T12:32:15;100809.97;;;9.14;71.17
19736;BME280;32064;49.310;8.646;2023-03-15T12:34:49;100810.97;;;9.12;71.06
19736;BME280;32064;49.310;8.646;2023-03-15T12:39:47;100828.69;;;8.92;71.96
19736;BME280;32064;49.310;8.646;2023-03-15T12:55:44;100829.59;;;9.82;72.71
19736;BME280;32064;49.310;8.646;2023-03-15T12:58:12;100822.31;;;10.01;71.57
19736;BME280;32064;49.310;8.646;2023-03-15T13:00:41;100814.34;;;10.17;70.91
19736;BME280;32064;49.310;8.646;2023-03-15T13:03:14;100817.19;;;10.28;72.00
19736;BME280;32064;49.310;8.646;2023-03-15T13:05:54;100822.13;;;10.33;70.58
19736;BME280;32064;49.310;8.646;2023-03-15T13:08:23;100825.81;;;10.30;71.42
19736;BME280;32064;49.310;8.646;2023-03-15T13:11:11;100825.06;;;10.28;69.81
19736;BME280;32064;49.310;8.646;2023-03-15T13:18:53;100822.50;;;10.12;70.59
19736;BME280;32064;49.310;8.646;2023-03-15T13:23:56;100826.06;;;10.11;69.31
19736;BME280;32064;49.310;8.646;2023-03-15T13:29:13;100818.06;;;10.13;71.03
19736;BME280;32064;49.310;8.646;2023-03-15T13:31:42;100817.72;;;10.19;68.84
19736;BME280;32064;49.310;8.646;2023-03-15T13:34:21;100816.59;;;10.23;69.81
19736;BME280;32064;49.310;8.646;2023-03-15T13:36:54;100814.16;;;10.34;68.10
19736;BME280;32064;49.310;8.646;2023-03-15T13:39:22;100808.09;;;10.61;69.03
19736;BME280;32064;49.310;8.646;2023-03-15T13:41:56;100799.97;;;11.06;69.43
19736;BME280;32064;49.310;8.646;2023-03-15T13:44:22;100802.06;;;11.53;68.85
19736;BME280;32064;49.310;8.646;2023-03-15T13:46:50;100795.25;;;11.63;67.05
19736;BME280;32064;49.310;8.646;2023-03-15T13:49:17;100783.53;;;11.67;67.30
19736;BME280;32064;49.310;8.646;2023-03-15T13:51:44;100789.00;;;11.77;67.31
19736;BME280;32064;49.310;8.646;2023-03-15T13:54:31;100791.47;;;11.93;66.27